sensor_id;sensor_type;location;lat;lon;timestamp;P1;durP1;ratioP1;P2;durP2;ratioP2
15381;SDS011;7789;51.364;12.358;2024-03-08T00:03:33;21.13;;;16.20;;
15381;SDS011;7789;51.364;12.358;2024-03-08T00:08:36;21.53;;;15.27;;
15381;SDS011;7789;51.364;12.358;2024-03-08T00:13:41;20.97;;;15.10;;
15381;SDS011;7789;51.364;12.358;2024-03-08T00:18:46;21.60;;;15.83;;
15381;SDS011;7789;51.364;12.358;2024-03-08T00:23:51;22.60;;;15.97;;
15381;SDS011;7789;51.364;12.358;2024-03-08T00:28:57;23.00;;;14.87;;
15381;SDS011;7789;51.364;12.358;2024-03-08T00:34:00;20.37;;;15.43;;
15381;SDS011;7789;51.364;12.358;2024-03-08T00:39:04;21.80;;;16.13;;
15381;SDS011;7789;51.364;12.358;2024-03-08T00:44:09;21.50;;;16.07;;
15381;SDS011;7789;51.364;12.358;2024-03-08T00:49:13;24.57;;;16.53;;
15381;SDS011;7789;51.364;12.358;2024-03-08T00:54:17;20.33;;;15.03;;
15381;SDS011;7789;51.364;12.358;2024-03-08T00:59:22;22.53;;;16.13;;
15381;SDS011;7789;51.364;12.358;2024-03-08T01:04:25;23.80;;;16.40;;
15381;SDS011;7789;51.364;12.358;2024-03-08T01:09:31;23.23;;;16.53;;
15381;SDS011;7789;51.364;12.358;2024-03-08T01:14:37;21.03;;;15.70;;
15381;SDS011;7789;51.364;12.358;2024-03-08T01:19:40;21.57;;;16.57;;
15381;SDS011;7789;51.364;12.358;2024-03-08T01:24:46;22.67;;;16.30;;
15381;SDS011;7789;51.364;12.358;2024-03-08T01:29:51;26.03;;;18.43;;
15381;SDS011;7789;51.364;12.358;2024-03-08T01:34:54;27.10;;;15.87;;
15381;SDS011;7789;51.364;12.358;2024-03-08T01:39:57;21.83;;;16.03;;
15381;SDS011;7789;51.364;12.358;2024-03-08T01:45:03;23.13;;;15.90;;
15381;SDS011;7789;51.364;12.358;2024-03-08T01:50:07;26.03;;;16.40;;
15381;SDS011;7789;51.364;12.358;2024-03-08T01:55:12;24.33;;;16.07;;
15381;SDS011;7789;51.364;12.358;2024-03-08T02:00:18;20.83;;;15.90;;
15381;SDS011;7789;51.364;12.358;2024-03-08T02:05:23;22.80;;;16.33;;
15381;SDS011;7789;51.364;12.358;2024-03-08T02:10:27;21.53;;;15.27;;
15381;SDS011;7789;51.364;12.358;2024-03-08T02:20:58;23.23;;;15.47;;
15381;SDS011;7789;51.364;12.358;2024-03-08T02:26:03;22.77;;;15.43;;
15381;SDS011;7789;51.364;12.358;2024-03-08T02:31:07;21.90;;;15.07;;
15381;SDS011;7789;51.364;12.358;2024-03-08T02:36:12;24.33;;;16.30;;
15381;SDS011;7789;51.364;12.358;2024-03-08T02:41:16;24.87;;;15.93;;
15381;SDS011;7789;51.364;12.358;2024-03-08T02:46:19;24.37;;;16.87;;
15381;SDS011;7789;51.364;12.358;2024-03-08T02:51:24;22.40;;;16.00;;
15381;SDS011;7789;51.364;12.358;2024-03-08T02:56:28;25.60;;;16.53;;
15381;SDS011;7789;51.364;12.358;2024-03-08T03:01:32;22.90;;;16.50;;
15381;SDS011;7789;51.364;12.358;2024-03-08T03:06:38;23.23;;;16.13;;
15381;SDS011;7789;51.364;12.358;2024-03-08T03:11:44;23.10;;;15.60;;
15381;SDS011;7789;51.364;12.358;2024-03-08T03:16:47;22.20;;;16.63;;
15381;SDS011;7789;51.364;12.358;2024-03-08T03:21:53;25.07;;;17.67;;
15381;SDS011;7789;51.364;12.358;2024-03-08T03:26:56;25.27;;;16.30;;
15381;SDS011;7789;51.364;12.358;2024-03-08T03:31:59;23.20;;;16.50;;
15381;SDS011;7789;51.364;12.358;2024-03-08T03:37:06;23.60;;;16.80;;
15381;SDS011;7789;51.364;12.358;2024-03-08T03:42:10;23.83;;;16.40;;
15381;SDS011;7789;51.364;12.358;2024-03-08T03:47:13;24.47;;;16.97;;
15381;SDS011;7789;51.364;12.358;2024-03-08T03:52:19;23.90;;;15.97;;
15381;SDS011;7789;51.364;12.358;2024-03-08T03:57:22;23.77;;;16.03;;
15381;SDS011;7789;51.364;12.358;2024-03-08T04:02:25;25.83;;;17.17;;
15381;SDS011;7789;51.364;12.358;2024-03-08T04:07:30;23.50;;;15.23;;
15381;SDS011;7789;51.364;12.358;2024-03-08T04:12:33;24.50;;;15.63;;
15381;SDS011;7789;51.364;12.358;2024-03-08T04:17:37;24.47;;;16.30;;
15381;SDS011;7789;51.364;12.358;2024-03-08T04:22:42;24.03;;;16.00;;
15381;SDS011;7789;51.364;12.358;2024-03-08T04:27:46;24.27;;;15.80;;
15381;SDS011;7789;51.364;12.358;2024-03-08T04:32:51;24.03;;;15.37;;
15381;SDS011;7789;51.364;12.358;2024-03-08T04:37:56;23.30;;;15.30;;
15381;SDS011;7789;51.364;12.358;2024-03-08T04:42:59;24.47;;;17.03;;
15381;SDS011;7789;51.364;12.358;2024-03-08T04:48:04;25.00;;;17.10;;
15381;SDS011;7789;51.364;12.358;2024-03-08T04:53:09;24.40;;;17.43;;
15381;SDS011;7789;51.364;12.358;2024-03-08T04:58:12;25.00;;;16.17;;
15381;SDS011;7789;51.364;12.358;2024-03-08T05:03:15;25.30;;;16.03;;
15381;SDS011;7789;51.364;12.358;2024-03-08T05:08:21;25.43;;;17.60;;
15381;SDS011;7789;51.364;12.358;2024-03-08T05:13:24;26.73;;;18.27;;
15381;SDS011;7789;51.364;12.358;2024-03-08T05:18:29;24.63;;;17.27;;
15381;SDS011;7789;51.364;12.358;2024-03-08T05:23:35;25.93;;;17.80;;
15381;SDS011;7789;51.364;12.358;2024-03-08T05:28:40;25.03;;;17.57;;
15381;SDS011;7789;51.364;12.358;2024-03-08T05:33:43;25.67;;;17.57;;
15381;SDS011;7789;51.364;12.358;2024-03-08T05:38:49;26.37;;;15.93;;
15381;SDS011;7789;51.364;12.358;2024-03-08T05:43:52;24.60;;;17.63;;
15381;SDS011;7789;51.364;12.358;2024-03-08T05:48:56;27.77;;;16.63;;
15381;SDS011;7789;51.364;12.358;2024-03-08T05:54:03;28.10;;;16.37;;
15381;SDS011;7789;51.364;12.358;2024-03-08T05:59:10;25.73;;;16.70;;
15381;SDS011;7789;51.364;12.358;2024-03-08T06:04:14;27.30;;;18.83;;
15381;SDS011;7789;51.364;12.358;2024-03-08T06:09:21;26.40;;;18.07;;
15381;SDS011;7789;51.364;12.358;2024-03-08T06:14:28;25.03;;;17.60;;
15381;SDS011;7789;51.364;12.358;2024-03-08T06:19:32;29.60;;;18.63;;
15381;SDS011;7789;51.364;12.358;2024-03-08T06:24:38;28.30;;;18.70;;
15381;SDS011;7789;51.364;12.358;2024-03-08T06:29:41;25.93;;;18.20;;
15381;SDS011;7789;51.364;12.358;2024-03-08T06:34:45;27.10;;;17.97;;
15381;SDS011;7789;51.364;12.358;2024-03-08T06:39:50;27.97;;;17.93;;
15381;SDS011;7789;51.364;12.358;2024-03-08T06:44:56;26.93;;;18.47;;
15381;SDS011;7789;51.364;12.358;2024-03-08T06:50:06;27.27;;;18.23;;
15381;SDS011;7789;51.364;12.358;2024-03-08T06:55:11;28.20;;;18.67;;
15381;SDS011;7789;51.364;12.358;2024-03-08T07:00:15;26.77;;;17.73;;
15381;SDS011;7789;51.364;12.358;2024-03-08T07:05:23;24.57;;;17.43;;
15381;SDS011;7789;51.364;12.358;2024-03-08T07:10:33;23.17;;;15.13;;
15381;SDS011;7789;51.364;12.358;2024-03-08T07:15:38;25.37;;;16.47;;
15381;SDS011;7789;51.364;12.358;2024-03-08T07:20:42;23.77;;;15.60;;
15381;SDS011;7789;51.364;12.358;2024-03-08T07:25:51;23.57;;;15.73;;
15381;SDS011;7789;51.364;12.358;2024-03-08T07:30:59;23.77;;;17.23;;
15381;SDS011;7789;51.364;12.358;2024-03-08T07:36:34;22.17;;;16.67;;
15381;SDS011;7789;51.364;12.358;2024-03-08T07:41:40;22.40;;;16.70;;
15381;SDS011;7789;51.364;12.358;2024-03-08T07:46:44;22.27;;;17.17;;
15381;SDS011;7789;51.364;12.358;2024-03-08T07:51:47;20.80;;;16.60;;
15381;SDS011;7789;51.364;12.358;2024-03-08T07:56:52;21.33;;;16.80;;
15381;SDS011;7789;51.364;12.358;2024-03-08T08:01:55;23.07;;;17.17;;
15381;SDS011;7789;51.364;12.358;2024-03-08T08:06:59;24.40;;;16.93;;
15381;SDS011;7789;51.364;12.358;2024-03-08T08:12:05;22.23;;;16.30;;
15381;SDS011;7789;51.364;12.358;2024-03-08T08:17:11;19.60;;;15.90;;
15381;SDS011;7789;51.364;12.358;2024-03-08T08:22:15;24.73;;;17.63;;
15381;SDS011;7789;51.364;12.358;2024-03-08T08:27:21;26.13;;;18.03;;
15381;SDS011;7789;51.364;12.358;2024-03-08T08:32:24;21.67;;;17.07;;
15381;SDS011;7789;51.364;12.358;2024-03-08T08:37:28;22.70;;;16.70;;
15381;SDS011;7789;51.364;12.358;2024-03-08T08:42:33;21.73;;;16.07;;
15381;SDS011;7789;51.364;12.358;2024-03-08T08:47:36;21.90;;;16.57;;
15381;SDS011;7789;51.364;12.358;2024-03-08T08:52:40;20.77;;;16.50;;
15381;SDS011;7789;51.364;12.358;2024-03-08T08:57:46;22.20;;;17.97;;
15381;SDS011;7789;51.364;12.358;2024-03-08T09:02:51;22.37;;;16.43;;
15381;SDS011;7789;51.364;12.358;2024-03-08T09:07:56;20.97;;;15.97;;
15381;SDS011;7789;51.364;12.358;2024-03-08T09:13:01;22.90;;;16.70;;
15381;SDS011;7789;51.364;12.358;2024-03-08T09:18:10;21.50;;;16.80;;
15381;SDS011;7789;51.364;12.358;2024-03-08T09:23:13;22.07;;;16.60;;
15381;SDS011;7789;51.364;12.358;2024-03-08T09:28:23;20.27;;;16.37;;
15381;SDS011;7789;51.364;12.358;2024-03-08T09:33:26;21.17;;;16.53;;
15381;SDS011;7789;51.364;12.358;2024-03-08T09:38:30;19.07;;;16.10;;
15381;SDS011;7789;51.364;12.358;2024-03-08T09:43:35;21.83;;;17.97;;
15381;SDS011;7789;51.364;12.358;2024-03-08T09:48:39;20.23;;;17.13;;
15381;SDS011;7789;51.364;12.358;2024-03-08T09:53:43;25.87;;;17.80;;
15381;SDS011;7789;51.364;12.358;2024-03-08T09:58:49;22.23;;;16.43;;
15381;SDS011;7789;51.364;12.358;2024-03-08T10:04:21;20.60;;;17.37;;
15381;SDS011;7789;51.364;12.358;2024-03-08T10:09:26;20.87;;;16.13;;
15381;SDS011;7789;51.364;12.358;2024-03-08T10:14:33;21.67;;;15.83;;
15381;SDS011;7789;51.364;12.358;2024-03-08T10:19:37;23.27;;;17.07;;
15381;SDS011;7789;51.364;12.358;2024-03-08T10:24:41;21.53;;;16.87;;
15381;SDS011;7789;51.364;12.358;2024-03-08T10:29:49;23.03;;;16.43;;
15381;SDS011;7789;51.364;12.358;2024-03-08T10:34:54;21.47;;;16.33;;
15381;SDS011;7789;51.364;12.358;2024-03-08T10:40:06;19.57;;;15.93;;
15381;SDS011;7789;51.364;12.358;2024-03-08T10:45:22;19.93;;;14.83;;
15381;SDS011;7789;51.364;12.358;2024-03-08T10:50:33;22.40;;;15.70;;
15381;SDS011;7789;51.364;12.358;2024-03-08T10:55:38;24.03;;;16.90;;
15381;SDS011;7789;51.364;12.358;2024-03-08T11:00:44;20.37;;;15.07;;
15381;SDS011;7789;51.364;12.358;2024-03-08T11:05:49;21.27;;;15.77;;
15381;SDS011;7789;51.364;12.358;2024-03-08T11:10:56;19.43;;;14.53;;
15381;SDS011;7789;51.364;12.358;2024-03-08T11:16:01;21.60;;;14.67;;
15381;SDS011;7789;51.364;12.358;2024-03-08T11:21:08;18.07;;;14.57;;
15381;SDS011;7789;51.364;12.358;2024-03-08T11:26:18;21.57;;;16.47;;
15381;SDS011;7789;51.364;12.358;2024-03-08T11:31:24;19.57;;;15.27;;
15381;SDS011;7789;51.364;12.358;2024-03-08T11:36:30;20.37;;;16.67;;
15381;SDS011;7789;51.364;12.358;2024-03-08T11:41:39;20.90;;;16.03;;
15381;SDS011;7789;51.364;12.358;2024-03-08T11:46:45;20.40;;;15.27;;
15381;SDS011;7789;51.364;12.358;2024-03-08T11:51:51;19.83;;;15.30;;
15381;SDS011;7789;51.364;12.358;2024-03-08T11:56:55;18.20;;;15.17;;
15381;SDS011;7789;51.364;12.358;2024-03-08T12:02:03;20.17;;;14.23;;
15381;SDS011;7789;51.364;12.358;2024-03-08T12:07:09;20.33;;;14.57;;
15381;SDS011;7789;51.364;12.358;2024-03-08T12:12:14;20.33;;;13.13;;
15381;SDS011;7789;51.364;12.358;2024-03-08T12:17:20;19.63;;;15.37;;
15381;SDS011;7789;51.364;12.358;2024-03-08T12:22:35;21.10;;;15.83;;
15381;SDS011;7789;51.364;12.358;2024-03-08T12:27:44;17.73;;;15.23;;
15381;SDS011;7789;51.364;12.358;2024-03-08T12:32:56;20.23;;;16.33;;
15381;SDS011;7789;51.364;12.358;2024-03-08T12:38:04;20.57;;;16.67;;
15381;SDS011;7789;51.364;12.358;2024-03-08T12:43:09;20.30;;;15.80;;
15381;SDS011;7789;51.364;12.358;2024-03-08T12:48:14;21.83;;;15.07;;
15381;SDS011;7789;51.364;12.358;2024-03-08T12:53:20;21.07;;;15.80;;
15381;SDS011;7789;51.364;12.358;2024-03-08T12:58:25;21.57;;;15.60;;
15381;SDS011;7789;51.364;12.358;2024-03-08T13:03:29;22.77;;;17.70;;
15381;SDS011;7789;51.364;12.358;2024-03-08T13:08:35;21.77;;;16.77;;
15381;SDS011;7789;51.364;12.358;2024-03-08T13:13:40;23.93;;;16.37;;
15381;SDS011;7789;51.364;12.358;2024-03-08T13:18:44;20.63;;;16.30;;
15381;SDS011;7789;51.364;12.358;2024-03-08T13:23:56;19.97;;;15.27;;
15381;SDS011;7789;51.364;12.358;2024-03-08T13:29:01;25.30;;;15.87;;
15381;SDS011;7789;51.364;12.358;2024-03-08T13:34:05;25.37;;;17.17;;
15381;SDS011;7789;51.364;12.358;2024-03-08T13:39:11;21.33;;;16.93;;
15381;SDS011;7789;51.364;12.358;2024-03-08T13:44:17;21.77;;;16.60;;
15381;SDS011;7789;51.364;12.358;2024-03-08T13:49:21;20.33;;;16.47;;
15381;SDS011;7789;51.364;12.358;2024-03-08T13:54:26;20.07;;;15.37;;
15381;SDS011;7789;51.364;12.358;2024-03-08T13:59:33;21.83;;;15.60;;
15381;SDS011;7789;51.364;12.358;2024-03-08T14:04:36;20.63;;;15.43;;
15381;SDS011;7789;51.364;12.358;2024-03-08T14:09:42;20.87;;;15.47;;
15381;SDS011;7789;51.364;12.358;2024-03-08T14:14:46;21.13;;;16.40;;
15381;SDS011;7789;51.364;12.358;2024-03-08T14:19:49;20.67;;;16.80;;
15381;SDS011;7789;51.364;12.358;2024-03-08T14:24:54;20.73;;;15.97;;
15381;SDS011;7789;51.364;12.358;2024-03-08T14:29:58;20.33;;;15.53;;
15381;SDS011;7789;51.364;12.358;2024-03-08T14:35:01;18.37;;;15.37;;
15381;SDS011;7789;51.364;12.358;2024-03-08T14:40:07;20.57;;;14.83;;
15381;SDS011;7789;51.364;12.358;2024-03-08T14:45:11;18.73;;;15.07;;
15381;SDS011;7789;51.364;12.358;2024-03-08T14:50:14;19.70;;;15.77;;
15381;SDS011;7789;51.364;12.358;2024-03-08T14:55:20;21.40;;;16.63;;
15381;SDS011;7789;51.364;12.358;2024-03-08T15:00:24;21.67;;;15.93;;
15381;SDS011;7789;51.364;12.358;2024-03-08T15:05:35;19.03;;;14.90;;
15381;SDS011;7789;51.364;12.358;2024-03-08T15:10:45;19.80;;;15.37;;
15381;SDS011;7789;51.364;12.358;2024-03-08T15:15:50;18.80;;;13.83;;
15381;SDS011;7789;51.364;12.358;2024-03-08T15:20:56;19.37;;;15.07;;
15381;SDS011;7789;51.364;12.358;2024-03-08T15:26:02;21.20;;;14.87;;
15381;SDS011;7789;51.364;12.358;2024-03-08T15:31:09;16.90;;;12.90;;
15381;SDS011;7789;51.364;12.358;2024-03-08T15:36:12;21.33;;;14.37;;
15381;SDS011;7789;51.364;12.358;2024-03-08T15:41:19;20.10;;;14.67;;
15381;SDS011;7789;51.364;12.358;2024-03-08T15:46:22;19.30;;;14.83;;
15381;SDS011;7789;51.364;12.358;2024-03-08T15:51:26;17.47;;;14.47;;
15381;SDS011;7789;51.364;12.358;2024-03-08T15:56:34;17.97;;;15.53;;
15381;SDS011;7789;51.364;12.358;2024-03-08T16:01:37;18.43;;;13.73;;
15381;SDS011;7789;51.364;12.358;2024-03-08T16:06:40;19.93;;;14.80;;
15381;SDS011;7789;51.364;12.358;2024-03-08T16:11:45;19.00;;;15.07;;
15381;SDS011;7789;51.364;12.358;2024-03-08T16:16:49;19.10;;;15.83;;
15381;SDS011;7789;51.364;12.358;2024-03-08T16:21:53;19.20;;;16.00;;
15381;SDS011;7789;51.364;12.358;2024-03-08T16:27:00;19.07;;;15.40;;
15381;SDS011;7789;51.364;12.358;2024-03-08T16:32:04;19.37;;;14.97;;
15381;SDS011;7789;51.364;12.358;2024-03-08T16:37:07;19.13;;;14.37;;
15381;SDS011;7789;51.364;12.358;2024-03-08T16:42:14;19.37;;;14.47;;
15381;SDS011;7789;51.364;12.358;2024-03-08T16:47:17;23.17;;;15.17;;
15381;SDS011;7789;51.364;12.358;2024-03-08T16:52:24;21.43;;;14.13;;
15381;SDS011;7789;51.364;12.358;2024-03-08T16:57:30;16.20;;;13.33;;
15381;SDS011;7789;51.364;12.358;2024-03-08T17:02:33;19.03;;;13.90;;
15381;SDS011;7789;51.364;12.358;2024-03-08T17:07:37;15.97;;;13.00;;
15381;SDS011;7789;51.364;12.358;2024-03-08T17:12:44;16.00;;;13.37;;
15381;SDS011;7789;51.364;12.358;2024-03-08T17:17:54;16.60;;;13.30;;
15381;SDS011;7789;51.364;12.358;2024-03-08T17:23:01;16.27;;;13.03;;
15381;SDS011;7789;51.364;12.358;2024-03-08T17:28:12;18.33;;;13.93;;
15381;SDS011;7789;51.364;12.358;2024-03-08T17:33:17;18.20;;;13.80;;
15381;SDS011;7789;51.364;12.358;2024-03-08T17:38:23;18.60;;;13.87;;
15381;SDS011;7789;51.364;12.358;2024-03-08T17:43:28;17.70;;;12.93;;
15381;SDS011;7789;51.364;12.358;2024-03-08T17:48:32;18.27;;;13.07;;
15381;SDS011;7789;51.364;12.358;2024-03-08T17:53:35;18.30;;;13.00;;
15381;SDS011;7789;51.364;12.358;2024-03-08T17:58:40;19.43;;;13.43;;
15381;SDS011;7789;51.364;12.358;2024-03-08T18:03:44;17.20;;;13.03;;
15381;SDS011;7789;51.364;12.358;2024-03-08T18:08:47;20.73;;;14.57;;
15381;SDS011;7789;51.364;12.358;2024-03-08T18:13:52;20.30;;;13.87;;
15381;SDS011;7789;51.364;12.358;2024-03-08T18:18:56;20.00;;;14.57;;
15381;SDS011;7789;51.364;12.358;2024-03-08T18:24:00;18.73;;;14.20;;
15381;SDS011;7789;51.364;12.358;2024-03-08T18:29:06;20.10;;;14.67;;
15381;SDS011;7789;51.364;12.358;2024-03-08T18:34:18;19.73;;;14.63;;
15381;SDS011;7789;51.364;12.358;2024-03-08T18:39:22;19.63;;;15.50;;
15381;SDS011;7789;51.364;12.358;2024-03-08T18:44:30;20.13;;;16.40;;
15381;SDS011;7789;51.364;12.358;2024-03-08T18:49:33;26.40;;;17.07;;
15381;SDS011;7789;51.364;12.358;2024-03-08T18:54:37;24.27;;;17.80;;
15381;SDS011;7789;51.364;12.358;2024-03-08T18:59:43;24.43;;;17.87;;
15381;SDS011;7789;51.364;12.358;2024-03-08T19:04:46;22.17;;;17.37;;
15381;SDS011;7789;51.364;12.358;2024-03-08T19:09:53;29.13;;;19.97;;
15381;SDS011;7789;51.364;12.358;2024-03-08T19:15:03;26.43;;;19.10;;
15381;SDS011;7789;51.364;12.358;2024-03-08T19:20:10;27.27;;;19.90;;
15381;SDS011;7789;51.364;12.358;2024-03-08T19:25:20;29.30;;;21.43;;
15381;SDS011;7789;51.364;12.358;2024-03-08T19:30:28;29.60;;;20.70;;
15381;SDS011;7789;51.364;12.358;2024-03-08T19:35:33;28.03;;;20.80;;
15381;SDS011;7789;51.364;12.358;2024-03-08T19:40:37;31.73;;;21.57;;
15381;SDS011;7789;51.364;12.358;2024-03-08T19:45:48;29.20;;;21.20;;
15381;SDS011;7789;51.364;12.358;2024-03-08T19:50:56;32.03;;;23.40;;
15381;SDS011;7789;51.364;12.358;2024-03-08T19:56:07;28.90;;;22.10;;
15381;SDS011;7789;51.364;12.358;2024-03-08T20:01:13;33.50;;;23.57;;
15381;SDS011;7789;51.364;12.358;2024-03-08T20:06:36;31.17;;;22.53;;
15381;SDS011;7789;51.364;12.358;2024-03-08T20:11:41;30.30;;;22.47;;
15381;SDS011;7789;51.364;12.358;2024-03-08T20:16:47;34.80;;;23.93;;
15381;SDS011;7789;51.364;12.358;2024-03-08T20:21:52;29.97;;;23.13;;
15381;SDS011;7789;51.364;12.358;2024-03-08T20:27:01;34.77;;;22.97;;
15381;SDS011;7789;51.364;12.358;2024-03-08T20:32:08;32.13;;;23.73;;
15381;SDS011;7789;51.364;12.358;2024-03-08T20:37:15;36.60;;;24.90;;
15381;SDS011;7789;51.364;12.358;2024-03-08T20:42:18;33.73;;;24.93;;
15381;SDS011;7789;51.364;12.358;2024-03-08T20:47:22;32.80;;;23.43;;
15381;SDS011;7789;51.364;12.358;2024-03-08T20:52:27;32.67;;;24.03;;
15381;SDS011;7789;51.364;12.358;2024-03-08T20:57:33;36.77;;;26.00;;
15381;SDS011;7789;51.364;12.358;2024-03-08T21:02:36;35.90;;;25.77;;
15381;SDS011;7789;51.364;12.358;2024-03-08T21:07:42;35.53;;;26.70;;
15381;SDS011;7789;51.364;12.358;2024-03-08T21:12:45;36.00;;;26.50;;
15381;SDS011;7789;51.364;12.358;2024-03-08T21:17:56;35.93;;;26.40;;
15381;SDS011;7789;51.364;12.358;2024-03-08T21:23:01;36.67;;;27.20;;
15381;SDS011;7789;51.364;12.358;2024-03-08T21:28:07;35.80;;;25.80;;
15381;SDS011;7789;51.364;12.358;2024-03-08T21:33:13;38.27;;;27.57;;
15381;SDS011;7789;51.364;12.358;2024-03-08T21:38:22;35.07;;;26.33;;
15381;SDS011;7789;51.364;12.358;2024-03-08T21:43:27;34.27;;;25.43;;
15381;SDS011;7789;51.364;12.358;2024-03-08T21:48:31;40.17;;;27.80;;
15381;SDS011;7789;51.364;12.358;2024-03-08T21:53:41;34.53;;;26.10;;
15381;SDS011;7789;51.364;12.358;2024-03-08T21:58:45;36.90;;;25.40;;
15381;SDS011;7789;51.364;12.358;2024-03-08T22:03:52;39.50;;;25.60;;
15381;SDS011;7789;51.364;12.358;2024-03-08T22:09:01;35.57;;;22.93;;
15381;SDS011;7789;51.364;12.358;2024-03-08T22:14:08;40.63;;;25.00;;
15381;SDS011;7789;51.364;12.358;2024-03-08T22:19:15;33.47;;;24.23;;
15381;SDS011;7789;51.364;12.358;2024-03-08T22:24:21;32.03;;;23.40;;
15381;SDS011;7789;51.364;12.358;2024-03-08T22:29:26;30.53;;;23.17;;
15381;SDS011;7789;51.364;12.358;2024-03-08T22:34:30;30.93;;;22.83;;
15381;SDS011;7789;51.364;12.358;2024-03-08T22:39:39;32.23;;;22.57;;
15381;SDS011;7789;51.364;12.358;2024-03-08T22:44:44;27.67;;;21.90;;
15381;SDS011;7789;51.364;12.358;2024-03-08T22:49:48;34.50;;;22.50;;
15381;SDS011;7789;51.364;12.358;2024-03-08T22:54:57;28.27;;;22.53;;
15381;SDS011;7789;51.364;12.358;2024-03-08T23:00:05;28.80;;;21.70;;
15381;SDS011;7789;51.364;12.358;2024-03-08T23:05:35;28.40;;;21.53;;
15381;SDS011;7789;51.364;12.358;2024-03-08T23:10:41;33.07;;;24.07;;
15381;SDS011;7789;51.364;12.358;2024-03-08T23:15:45;30.63;;;22.87;;
15381;SDS011;7789;51.364;12.358;2024-03-08T23:20:49;30.03;;;21.43;;
15381;SDS011;7789;51.364;12.358;2024-03-08T23:25:56;32.73;;;20.47;;
15381;SDS011;7789;51.364;12.358;2024-03-08T23:31:00;30.67;;;21.63;;
15381;SDS011;7789;51.364;12.358;2024-03-08T23:36:08;32.07;;;22.20;;
15381;SDS011;7789;51.364;12.358;2024-03-08T23:41:20;29.90;;;21.87;;
15381;SDS011;7789;51.364;12.358;2024-03-08T23:46:27;33.80;;;22.33;;
15381;SDS011;7789;51.364;12.358;2024-03-08T23:51:31;29.83;;;22.67;;
15381;SDS011;7789;51.364;12.358;2024-03-08T23:56:38;32.50;;;22.00;;
